Time;durP1;ratioP1;P1;durP2;ratioP2;P2;SDS_P1;SDS_P2;PMS_P1;PMS_P2;Temp;Humidity;BMP_temperature;BMP_pressure;BME280_temperature;BME280_humidity;BME280_pressure;Samples;Min_cycle;Max_cycle;Signal;HPM_P1;HPM_P2
2022/10/03 00:01:08;;;;;;;;;;;24.90;99.90;;;;;;5034291;22;19920;-56
2022/10/03 00:03:44;;;;;;;;;;;24.90;99.90;;;;;;5034878;28;19994;-59
2022/10/03 00:06:13;;;;;;;;;;;24.80;99.90;;;;;;5034744;28;19913;-56
2022/10/03 00:08:38;;;;;;;;;;;24.80;99.90;;;;;;5034729;28;19913;-58
2022/10/03 00:11:10;;;;;;;;;;;24.80;99.90;;;;;;5034699;28;20315;-58
2022/10/03 00:13:47;;;;;;;;;;;24.70;99.90;;;;;;5034736;28;19905;-58
2022/10/03 00:16:16;;;;;;;;;;;24.70;99.90;;;;;;5034448;28;19905;-56
2022/10/03 00:18:45;;;;;;;;;;;24.70;99.90;;;;;;5034307;28;20372;-58
2022/10/03 00:21:19;;;;;;;;;;;24.70;99.90;;;;;;5034521;28;19911;-58
2022/10/03 00:23:53;;;;;;;;;;;24.70;99.90;;;;;;5034377;28;19905;-57
2022/10/03 00:26:29;;;;;;;;;;;24.70;99.90;;;;;;5033041;28;20339;-58
2022/10/03 00:29:00;;;;;;;;;;;24.70;99.90;;;;;;5034244;28;20348;-57
2022/10/03 00:31:44;;;;;;;;;;;24.60;99.90;;;;;;5034225;28;19951;-57
2022/10/03 00:34:13;;;;;;;;;;;24.60;99.90;;;;;;5034283;28;20427;-57
2022/10/03 00:36:58;;;;;;;;;;;24.60;99.90;;;;;;5034325;28;19944;-57
2022/10/03 00:39:29;;;;;;;;;;;24.60;99.90;;;;;;5033948;28;20280;-58
2022/10/03 00:42:12;;;;;;;;;;;24.50;99.90;;;;;;5033917;28;19905;-57
2022/10/03 00:44:44;;;;;;;;;;;24.50;99.90;;;;;;5034000;28;19905;-57
2022/10/03 00:47:28;;;;;;;;;;;24.50;99.90;;;;;;5034178;28;19912;-59
2022/10/03 00:50:03;;;;;;;;;;;24.50;99.90;;;;;;5033834;28;19905;-58
2022/10/03 00:52:34;;;;;;;;;;;24.50;99.90;;;;;;5033622;28;20379;-58
2022/10/03 00:55:06;;;;;;;;;;;24.50;99.90;;;;;;5033826;28;19905;-58
2022/10/03 00:57:40;;;;;;;;;;;24.50;99.90;;;;;;5033659;28;19927;-59
2022/10/03 01:00:20;;;;;;;;;;;24.50;99.90;;;;;;5061174;22;20064;-57
2022/10/03 01:02:45;;;;;;;;;;;24.50;99.90;;;;;;5033358;28;20404;-58
2022/10/03 01:05:30;;;;;;;;;;;24.50;99.90;;;;;;5033849;28;19959;-58
2022/10/03 01:08:17;;;;;;;;;;;24.50;99.90;;;;;;5033429;28;19905;-57
2022/10/03 01:11:09;;;;;;;;;;;24.50;99.90;;;;;;5033495;28;20369;-56
2022/10/03 01:13:58;;;;;;;;;;;24.50;99.90;;;;;;5032091;28;20284;-58
2022/10/03 01:16:30;;;;;;;;;;;24.50;99.90;;;;;;5033321;28;19905;-57
2022/10/03 01:19:01;;;;;;;;;;;24.50;99.90;;;;;;5033189;28;19959;-58
2022/10/03 01:21:41;;;;;;;;;;;24.50;99.90;;;;;;5033104;28;20353;-58
2022/10/03 01:24:07;;;;;;;;;;;24.50;99.90;;;;;;5033110;28;20364;-59
2022/10/03 01:26:48;;;;;;;;;;;24.50;99.90;;;;;;5033088;28;19920;-58
2022/10/03 01:32:03;;;;;;;;;;;24.50;99.90;;;;;;5032956;28;19911;-58
2022/10/03 01:34:36;;;;;;;;;;;24.50;99.90;;;;;;5033026;28;19982;-58
2022/10/03 01:37:10;;;;;;;;;;;24.50;99.90;;;;;;5033070;28;19959;-59
2022/10/03 01:39:49;;;;;;;;;;;24.50;99.90;;;;;;5032870;28;19905;-59
2022/10/03 01:42:33;;;;;;;;;;;24.50;99.90;;;;;;5032911;28;19909;-59
2022/10/03 01:45:05;;;;;;;;;;;24.50;99.90;;;;;;5032595;28;19975;-59
2022/10/03 01:47:36;;;;;;;;;;;24.50;99.90;;;;;;5032784;28;19905;-58
2022/10/03 01:50:04;;;;;;;;;;;24.50;99.90;;;;;;5032599;28;19996;-58
2022/10/03 01:52:30;;;;;;;;;;;24.50;99.90;;;;;;5032570;28;19960;-59
2022/10/03 01:55:07;;;;;;;;;;;24.40;99.90;;;;;;5032627;28;19909;-58
2022/10/03 01:57:35;;;;;;;;;;;24.40;99.90;;;;;;5032670;28;19940;-59
2022/10/03 02:00:09;;;;;;;;;;;24.50;99.90;;;;;;5044768;22;20012;-56
2022/10/03 02:02:53;;;;;;;;;;;24.40;99.90;;;;;;5032366;28;20247;-56
2022/10/03 02:05:38;;;;;;;;;;;24.40;99.90;;;;;;5032153;28;19932;-57
2022/10/03 02:08:04;;;;;;;;;;;24.40;99.90;;;;;;5047663;28;19912;-58
2022/10/03 02:10:48;;;;;;;;;;;24.40;99.90;;;;;;5032331;28;19912;-57
2022/10/03 02:13:14;;;;;;;;;;;24.40;99.90;;;;;;5031921;28;20440;-56
2022/10/03 02:15:58;;;;;;;;;;;24.50;99.90;;;;;;5032238;28;19995;-56
2022/10/03 02:18:28;;;;;;;;;;;24.50;99.90;;;;;;5032239;28;19909;-56
2022/10/03 02:21:08;;;;;;;;;;;24.40;99.90;;;;;;5047420;28;20367;-56
2022/10/03 02:23:35;;;;;;;;;;;24.50;99.90;;;;;;5032021;28;19905;-56
2022/10/03 02:26:09;;;;;;;;;;;24.40;99.90;;;;;;5032078;28;19987;-56
2022/10/03 02:28:37;;;;;;;;;;;24.40;99.90;;;;;;5031881;28;19905;-56
2022/10/03 02:31:21;;;;;;;;;;;24.40;99.90;;;;;;5032056;28;19948;-56
2022/10/03 02:33:53;;;;;;;;;;;24.40;99.90;;;;;;5031974;28;19905;-56
2022/10/03 02:36:19;;;;;;;;;;;24.40;99.90;;;;;;5032045;28;19948;-58
2022/10/03 02:39:11;;;;;;;;;;;24.40;99.90;;;;;;5032104;28;19956;-56
2022/10/03 02:41:38;;;;;;;;;;;24.40;99.90;;;;;;5031995;28;19912;-56
2022/10/03 02:44:22;;;;;;;;;;;24.50;99.90;;;;;;5031750;28;20388;-56
2022/10/03 02:46:59;;;;;;;;;;;24.40;99.90;;;;;;5031746;28;19913;-56
2022/10/03 02:49:44;;;;;;;;;;;24.50;99.90;;;;;;5031713;28;20000;-56
2022/10/03 02:52:12;;;;;;;;;;;24.40;99.90;;;;;;5031597;28;19912;-57
2022/10/03 02:54:52;;;;;;;;;;;24.40;99.90;;;;;;5031655;28;19913;-56
2022/10/03 02:57:36;;;;;;;;;;;24.40;99.90;;;;;;5031715;28;19905;-56
2022/10/03 03:00:07;;;;;;;;;;;24.40;99.90;;;;;;5031957;28;19917;-56
2022/10/03 03:02:32;;;;;;;;;;;24.40;99.90;;;;;;5031618;28;20389;-57
2022/10/03 03:05:13;;;;;;;;;;;24.40;99.90;;;;;;5031492;28;19913;-58
2022/10/03 03:07:58;;;;;;;;;;;24.40;99.90;;;;;;5031670;28;20383;-57
2022/10/03 03:10:38;;;;;;;;;;;24.30;99.90;;;;;;5031490;28;19912;-55
2022/10/03 03:13:25;;;;;;;;;;;24.40;99.90;;;;;;5031563;28;19905;-57
2022/10/03 03:16:00;;;;;;;;;;;24.30;99.90;;;;;;5031424;28;19988;-57
2022/10/03 03:18:33;;;;;;;;;;;24.30;99.90;;;;;;5031507;28;19912;-55
2022/10/03 03:21:02;;;;;;;;;;;24.30;99.90;;;;;;5031560;28;19912;-54
2022/10/03 03:23:37;;;;;;;;;;;24.30;99.90;;;;;;5031404;28;19932;-56
2022/10/03 03:26:22;;;;;;;;;;;24.30;99.90;;;;;;5035305;28;19913;-55
2022/10/03 03:29:10;;;;;;;;;;;24.30;99.90;;;;;;5035470;28;20003;-56
2022/10/03 03:31:53;;;;;;;;;;;24.30;99.90;;;;;;5024887;28;19959;-54
2022/10/03 03:34:26;;;;;;;;;;;24.30;99.90;;;;;;5035489;28;19992;-55
2022/10/03 03:37:03;;;;;;;;;;;24.30;99.90;;;;;;5035261;28;19947;-56
2022/10/03 03:39:29;;;;;;;;;;;24.30;99.90;;;;;;5035136;28;19905;-55
2022/10/03 03:42:13;;;;;;;;;;;24.20;99.90;;;;;;5035238;28;19958;-56
2022/10/03 03:44:49;;;;;;;;;;;24.20;99.90;;;;;;5034921;28;19916;-56
2022/10/03 03:47:24;;;;;;;;;;;24.20;99.90;;;;;;5034998;28;20000;-57
2022/10/03 03:49:59;;;;;;;;;;;24.20;99.90;;;;;;5035119;28;19975;-57
2022/10/03 03:52:25;;;;;;;;;;;24.30;99.90;;;;;;5035324;28;20299;-56
2022/10/03 03:55:15;;;;;;;;;;;24.30;99.90;;;;;;5035297;28;19912;-55
2022/10/03 03:57:48;;;;;;;;;;;24.30;99.90;;;;;;5034954;28;19909;-56
2022/10/03 04:00:16;;;;;;;;;;;24.30;99.90;;;;;;5035121;28;19995;-57
2022/10/03 04:02:45;;;;;;;;;;;24.30;99.90;;;;;;5035228;28;19996;-57
2022/10/03 04:05:25;;;;;;;;;;;24.30;99.90;;;;;;5034496;28;20012;-57
2022/10/03 04:08:10;;;;;;;;;;;24.30;99.90;;;;;;5034801;28;19944;-55
2022/10/03 04:10:48;;;;;;;;;;;24.30;99.90;;;;;;5034453;28;19920;-55
2022/10/03 04:13:17;;;;;;;;;;;24.30;99.90;;;;;;5034723;28;19912;-56
2022/10/03 04:15:55;;;;;;;;;;;24.30;99.90;;;;;;5034467;28;19959;-56
2022/10/03 04:21:31;;;;;;;;;;;24.30;99.90;;;;;;5034633;28;19959;-56
2022/10/03 04:24:05;;;;;;;;;;;24.30;99.90;;;;;;5034188;28;19905;-56
2022/10/03 04:27:01;;;;;;;;;;;24.30;99.90;;;;;;5034188;28;20382;-56
2022/10/03 04:29:32;;;;;;;;;;;24.30;99.90;;;;;;5029293;28;19975;-55
2022/10/03 04:32:01;;;;;;;;;;;24.30;99.90;;;;;;5034308;28;19906;-55
2022/10/03 04:34:29;;;;;;;;;;;24.30;99.90;;;;;;5034223;28;19927;-55
2022/10/03 04:36:55;;;;;;;;;;;24.30;99.90;;;;;;5033256;28;19999;-55
2022/10/03 04:39:39;;;;;;;;;;;24.30;99.90;;;;;;5034417;28;19983;-55
2022/10/03 04:42:25;;;;;;;;;;;24.30;99.90;;;;;;5033894;28;19913;-55
2022/10/03 04:45:06;;;;;;;;;;;24.30;99.90;;;;;;5034103;28;19905;-56
2022/10/03 04:47:52;;;;;;;;;;;24.30;99.90;;;;;;5033828;28;19920;-56
2022/10/03 04:50:18;;;;;;;;;;;24.30;99.90;;;;;;5033790;28;20384;-58
2022/10/03 04:52:49;;;;;;;;;;;24.20;99.90;;;;;;5033884;28;20310;-57
2022/10/03 04:55:32;;;;;;;;;;;24.20;99.90;;;;;;5033794;28;19905;-57
2022/10/03 04:58:03;;;;;;;;;;;24.20;99.90;;;;;;5033714;28;19912;-57
2022/10/03 05:00:32;;;;;;;;;;;24.20;99.90;;;;;;5033525;28;19921;-57
2022/10/03 05:03:01;;;;;;;;;;;24.20;99.90;;;;;;5033696;28;19905;-56
2022/10/03 05:05:33;;;;;;;;;;;24.20;99.90;;;;;;5033713;28;19917;-58
2022/10/03 05:08:10;;;;;;;;;;;24.20;99.90;;;;;;5033417;28;19909;-57
2022/10/03 05:10:43;;;;;;;;;;;24.20;99.90;;;;;;5033507;28;19905;-57
2022/10/03 05:13:12;;;;;;;;;;;24.20;99.90;;;;;;5033478;28;19916;-57
2022/10/03 05:15:43;;;;;;;;;;;24.10;99.90;;;;;;5033382;28;19971;-57
2022/10/03 05:18:33;;;;;;;;;;;24.10;99.90;;;;;;5033319;28;19905;-57
2022/10/03 05:20:59;;;;;;;;;;;24.10;99.90;;;;;;5033229;28;20334;-57
2022/10/03 05:23:43;;;;;;;;;;;24.10;99.90;;;;;;5033357;28;19905;-55
2022/10/03 05:26:12;;;;;;;;;;;24.10;99.90;;;;;;5033058;28;19916;-55
2022/10/03 05:28:43;;;;;;;;;;;24.10;99.90;;;;;;5033041;28;20314;-56
2022/10/03 05:31:32;;;;;;;;;;;24.10;99.90;;;;;;5033074;28;20348;-55
2022/10/03 05:34:16;;;;;;;;;;;24.10;99.90;;;;;;5022581;28;19947;-55
2022/10/03 05:36:51;;;;;;;;;;;24.10;99.90;;;;;;5032849;28;20379;-55
2022/10/03 05:39:17;;;;;;;;;;;24.10;99.90;;;;;;5032924;28;20253;-55
2022/10/03 05:41:53;;;;;;;;;;;24.10;99.90;;;;;;5032882;28;19924;-55
2022/10/03 05:44:20;;;;;;;;;;;24.10;99.90;;;;;;5032898;28;19971;-58
2022/10/03 05:47:02;;;;;;;;;;;24.10;99.90;;;;;;5032340;28;19913;-55
2022/10/03 05:49:34;;;;;;;;;;;24.10;99.90;;;;;;5032183;28;19909;-56
2022/10/03 05:52:15;;;;;;;;;;;24.00;99.90;;;;;;5032599;28;20000;-57
2022/10/03 05:54:44;;;;;;;;;;;24.10;99.90;;;;;;5032506;28;19905;-57
2022/10/03 05:57:13;;;;;;;;;;;24.10;99.90;;;;;;5032479;28;20347;-56
2022/10/03 05:59:47;;;;;;;;;;;24.10;99.90;;;;;;5032342;28;19951;-55
2022/10/03 06:02:24;;;;;;;;;;;24.00;99.90;;;;;;5032306;28;19909;-59
2022/10/03 06:05:08;;;;;;;;;;;24.00;99.90;;;;;;5032268;28;19905;-56
2022/10/03 06:07:40;;;;;;;;;;;24.10;99.90;;;;;;5032280;28;19912;-57
2022/10/03 06:10:33;;;;;;;;;;;24.00;99.90;;;;;;5032278;28;20280;-58
2022/10/03 06:12:59;;;;;;;;;;;24.10;99.90;;;;;;5032297;28;20435;-57
2022/10/03 06:15:24;;;;;;;;;;;24.10;99.90;;;;;;5032447;28;19940;-57
2022/10/03 06:17:50;;;;;;;;;;;24.00;99.90;;;;;;5032145;28;20260;-56
2022/10/03 06:20:28;;;;;;;;;;;24.00;99.90;;;;;;5032213;28;19908;-57
2022/10/03 06:23:08;;;;;;;;;;;24.00;99.90;;;;;;5032106;28;19949;-58
2022/10/03 06:25:49;;;;;;;;;;;24.00;99.90;;;;;;5031897;28;19959;-57
2022/10/03 06:28:18;;;;;;;;;;;24.00;99.90;;;;;;5031790;28;19998;-57
2022/10/03 06:31:12;;;;;;;;;;;24.00;99.90;;;;;;5031865;28;20048;-56
2022/10/03 06:33:38;;;;;;;;;;;24.00;99.90;;;;;;5031961;28;19909;-56
2022/10/03 06:36:18;;;;;;;;;;;24.00;99.90;;;;;;5031723;28;19905;-56
2022/10/03 06:38:46;;;;;;;;;;;24.00;99.90;;;;;;5031882;28;19905;-57
2022/10/03 06:41:23;;;;;;;;;;;24.00;99.90;;;;;;5031718;28;19916;-56
2022/10/03 06:44:02;;;;;;;;;;;24.00;99.90;;;;;;5031813;28;19909;-55
2022/10/03 06:46:27;;;;;;;;;;;24.00;99.90;;;;;;5031616;28;20364;-57
2022/10/03 06:49:22;;;;;;;;;;;23.90;99.90;;;;;;5031609;28;20019;-55
2022/10/03 06:52:00;;;;;;;;;;;23.90;99.90;;;;;;5026431;28;19909;-55
2022/10/03 06:54:44;;;;;;;;;;;23.90;99.90;;;;;;5047126;28;19905;-56
2022/10/03 06:57:27;;;;;;;;;;;23.90;99.90;;;;;;5031408;28;19951;-56
2022/10/03 07:00:12;;;;;;;;;;;23.90;99.90;;;;;;5030869;28;20368;-55
2022/10/03 07:02:37;;;;;;;;;;;24.00;99.90;;;;;;5031276;28;19912;-57
2022/10/03 07:05:09;;;;;;;;;;;24.00;99.90;;;;;;5031303;28;19913;-55
2022/10/03 07:07:54;;;;;;;;;;;24.00;99.90;;;;;;5031390;28;19912;-57
2022/10/03 07:10:22;;;;;;;;;;;24.00;99.90;;;;;;5031451;28;19916;-56
2022/10/03 07:12:58;;;;;;;;;;;24.00;99.90;;;;;;5031389;28;19974;-56
2022/10/03 07:15:32;;;;;;;;;;;24.00;99.90;;;;;;5031442;28;19905;-57
2022/10/03 07:18:07;;;;;;;;;;;24.00;99.90;;;;;;5031524;28;19908;-57
2022/10/03 07:20:53;;;;;;;;;;;24.10;99.90;;;;;;5031396;28;19905;-57
2022/10/03 07:23:27;;;;;;;;;;;24.10;99.90;;;;;;5020123;28;19916;-56
2022/10/03 07:26:12;;;;;;;;;;;24.10;99.90;;;;;;5046684;28;20311;-56
2022/10/03 07:28:52;;;;;;;;;;;24.10;99.90;;;;;;5031345;28;19905;-56
2022/10/03 07:31:29;;;;;;;;;;;24.10;99.90;;;;;;5031252;28;19905;-56
2022/10/03 07:34:07;;;;;;;;;;;24.10;99.90;;;;;;5031317;28;19905;-56
2022/10/03 07:39:43;;;;;;;;;;;24.20;99.90;;;;;;5031230;28;19951;-56
2022/10/03 07:42:11;;;;;;;;;;;24.20;99.90;;;;;;5031231;28;20170;-56
2022/10/03 07:44:52;;;;;;;;;;;24.20;99.90;;;;;;5046252;28;20346;-56
2022/10/03 07:47:30;;;;;;;;;;;24.20;99.90;;;;;;5031026;28;19913;-56
2022/10/03 07:49:58;;;;;;;;;;;24.30;99.90;;;;;;5030925;28;20143;-56
2022/10/03 07:52:28;;;;;;;;;;;24.30;99.90;;;;;;5031038;28;19979;-55
2022/10/03 07:54:53;;;;;;;;;;;24.30;99.90;;;;;;5031002;28;19909;-56
2022/10/03 07:57:38;;;;;;;;;;;24.30;99.90;;;;;;5031044;28;20371;-56
2022/10/03 08:00:15;;;;;;;;;;;24.30;99.90;;;;;;5031020;28;19971;-56
2022/10/03 08:03:09;;;;;;;;;;;24.40;99.90;;;;;;5030904;28;20378;-56
2022/10/03 08:05:42;;;;;;;;;;;24.40;99.90;;;;;;5030924;28;19967;-56
2022/10/03 08:08:08;;;;;;;;;;;24.50;99.90;;;;;;5030775;28;20487;-56
2022/10/03 08:10:52;;;;;;;;;;;24.50;99.90;;;;;;5031090;28;19906;-56
2022/10/03 08:13:27;;;;;;;;;;;24.50;99.90;;;;;;5034373;28;19912;-57
2022/10/03 08:16:11;;;;;;;;;;;24.60;99.90;;;;;;5034343;28;19912;-55
2022/10/03 08:18:55;;;;;;;;;;;24.60;99.90;;;;;;5034403;28;19963;-56
2022/10/03 08:21:27;;;;;;;;;;;24.60;99.90;;;;;;5034340;28;19905;-56
2022/10/03 08:24:02;;;;;;;;;;;24.60;99.90;;;;;;5034243;28;20372;-57
2022/10/03 08:26:46;;;;;;;;;;;24.60;99.90;;;;;;5034101;28;19913;-56
2022/10/03 08:29:18;;;;;;;;;;;24.60;99.90;;;;;;5034379;28;19947;-56
2022/10/03 08:31:47;;;;;;;;;;;24.70;99.90;;;;;;5034199;28;19906;-57
2022/10/03 08:34:39;;;;;;;;;;;24.60;99.90;;;;;;5034272;28;19951;-57
2022/10/03 08:37:04;;;;;;;;;;;24.70;99.90;;;;;;5025768;28;19911;-56
2022/10/03 08:39:45;;;;;;;;;;;24.70;99.90;;;;;;5033890;28;20003;-56
2022/10/03 08:42:29;;;;;;;;;;;24.70;99.90;;;;;;5033850;28;19905;-57
2022/10/03 08:45:04;;;;;;;;;;;24.80;99.90;;;;;;5033636;28;19949;-56
2022/10/03 08:47:45;;;;;;;;;;;24.90;99.90;;;;;;5033834;28;19905;-57
2022/10/03 08:50:14;;;;;;;;;;;24.90;99.90;;;;;;5033526;28;19960;-57
2022/10/03 08:52:39;;;;;;;;;;;25.00;99.90;;;;;;5033659;28;20003;-56
2022/10/03 08:55:14;;;;;;;;;;;25.00;99.90;;;;;;5033936;28;19944;-56
2022/10/03 08:57:52;;;;;;;;;;;25.00;99.90;;;;;;5033822;28;19905;-56
2022/10/03 09:00:18;;;;;;;;;;;25.10;99.90;;;;;;5033415;28;19917;-57
2022/10/03 09:02:44;;;;;;;;;;;25.10;99.90;;;;;;5033470;28;20372;-56
2022/10/03 09:05:22;;;;;;;;;;;25.10;99.90;;;;;;5033371;28;19963;-58
2022/10/03 09:07:51;;;;;;;;;;;25.10;99.90;;;;;;5033345;28;19909;-57
2022/10/03 09:10:32;;;;;;;;;;;25.10;99.90;;;;;;5033351;28;19909;-58
2022/10/03 09:13:16;;;;;;;;;;;25.20;99.90;;;;;;5033428;28;19991;-58
2022/10/03 09:15:42;;;;;;;;;;;25.20;99.90;;;;;;5033098;28;19905;-56
2022/10/03 09:18:08;;;;;;;;;;;25.20;99.90;;;;;;5033203;28;19905;-57
2022/10/03 09:20:37;;;;;;;;;;;25.20;99.90;;;;;;5033228;28;19906;-57
2022/10/03 09:23:21;;;;;;;;;;;25.30;99.90;;;;;;5032764;28;19959;-58
2022/10/03 09:25:59;;;;;;;;;;;25.30;99.90;;;;;;5032883;28;19983;-56
2022/10/03 09:28:25;;;;;;;;;;;25.30;99.90;;;;;;5032770;28;19995;-57
2022/10/03 09:30:52;;;;;;;;;;;25.30;99.90;;;;;;5032890;28;19941;-57
2022/10/03 09:33:38;;;;;;;;;;;25.40;99.90;;;;;;5032594;28;19905;-59
2022/10/03 09:36:28;;;;;;;;;;;25.40;99.90;;;;;;5032411;28;19904;-57
2022/10/03 09:39:12;;;;;;;;;;;25.40;99.90;;;;;;5032435;28;19904;-57
2022/10/03 09:41:41;;;;;;;;;;;25.50;99.90;;;;;;5032767;28;19905;-58
2022/10/03 09:44:06;;;;;;;;;;;25.50;99.90;;;;;;5032834;28;20387;-55
2022/10/03 09:46:38;;;;;;;;;;;25.50;99.90;;;;;;5032520;28;19913;-56
2022/10/03 09:49:03;;;;;;;;;;;25.50;99.90;;;;;;5032470;28;20329;-57
2022/10/03 09:51:32;;;;;;;;;;;25.50;99.90;;;;;;5032527;28;20398;-57
2022/10/03 09:54:20;;;;;;;;;;;25.60;99.90;;;;;;5032405;28;19913;-57
2022/10/03 09:57:20;;;;;;;;;;;25.60;99.90;;;;;;5032208;28;20268;-57
2022/10/03 10:00:02;;;;;;;;;;;25.60;99.90;;;;;;5010139;28;19921;-57
2022/10/03 10:02:41;;;;;;;;;;;25.60;99.90;;;;;;5029921;28;19905;-58
2022/10/03 10:05:13;;;;;;;;;;;25.60;99.90;;;;;;5032338;28;19905;-57
2022/10/03 10:08:02;;;;;;;;;;;25.60;99.90;;;;;;5032468;28;19912;-57
2022/10/03 10:10:46;;;;;;;;;;;25.60;99.90;;;;;;5032088;28;19905;-58
2022/10/03 10:13:14;;;;;;;;;;;25.70;99.90;;;;;;5032064;28;19905;-58
2022/10/03 10:15:52;;;;;;;;;;;25.70;99.90;;;;;;5032039;28;19905;-58
2022/10/03 10:18:30;;;;;;;;;;;25.70;99.90;;;;;;5032019;28;19912;-58
2022/10/03 10:20:55;;;;;;;;;;;25.70;99.90;;;;;;5032027;28;19909;-58
2022/10/03 10:23:41;;;;;;;;;;;25.70;99.90;;;;;;5031937;28;20348;-57
2022/10/03 10:26:08;;;;;;;;;;;25.80;99.90;;;;;;5031863;28;19917;-57
2022/10/03 10:28:34;;;;;;;;;;;25.80;99.90;;;;;;5031870;28;19951;-57
2022/10/03 10:31:17;;;;;;;;;;;25.90;99.90;;;;;;5031994;28;19925;-57
2022/10/03 10:33:52;;;;;;;;;;;25.90;99.90;;;;;;5031165;28;19947;-57
2022/10/03 10:36:30;;;;;;;;;;;25.90;99.90;;;;;;5031766;28;19947;-56
2022/10/03 10:39:34;;;;;;;;;;;25.90;99.90;;;;;;5031677;28;19943;-58
2022/10/03 10:42:02;;;;;;;;;;;25.90;99.90;;;;;;5009337;28;19982;-57
2022/10/03 10:44:28;;;;;;;;;;;26.00;99.90;;;;;;5009350;28;20351;-57
2022/10/03 10:46:53;;;;;;;;;;;26.00;99.90;;;;;;5019843;28;19986;-56
2022/10/03 10:49:38;;;;;;;;;;;26.00;99.90;;;;;;5031440;28;20400;-55
2022/10/03 10:52:13;;;;;;;;;;;26.00;99.90;;;;;;5031216;28;20372;-56
2022/10/03 10:55:01;;;;;;;;;;;26.00;99.90;;;;;;5031492;28;20003;-56
2022/10/03 10:57:39;;;;;;;;;;;26.10;99.90;;;;;;5031369;28;19920;-56
2022/10/03 11:00:24;;;;;;;;;;;26.10;99.90;;;;;;5031371;28;19917;-57
2022/10/03 11:03:09;;;;;;;;;;;26.10;99.90;;;;;;5031364;28;19905;-57
2022/10/03 11:05:53;;;;;;;;;;;26.10;99.90;;;;;;5031178;28;20422;-57
2022/10/03 11:08:27;;;;;;;;;;;26.10;99.90;;;;;;5031545;28;20338;-57
2022/10/03 11:11:11;;;;;;;;;;;26.20;99.90;;;;;;5031253;28;20275;-56
2022/10/03 11:13:56;;;;;;;;;;;26.10;99.90;;;;;;5031204;28;19905;-56
2022/10/03 11:16:34;;;;;;;;;;;26.20;99.90;;;;;;5031248;28;20003;-56
2022/10/03 11:19:18;;;;;;;;;;;26.20;99.90;;;;;;5031170;28;19996;-57
2022/10/03 11:21:49;;;;;;;;;;;26.20;99.90;;;;;;5031862;28;19912;-57
2022/10/03 11:24:40;;;;;;;;;;;26.20;99.90;;;;;;5031015;28;20402;-57
2022/10/03 11:27:24;;;;;;;;;;;26.30;99.90;;;;;;5031089;28;19920;-57
2022/10/03 11:30:03;;;;;;;;;;;26.30;99.90;;;;;;5031129;28;20284;-57
2022/10/03 11:32:38;;;;;;;;;;;26.30;99.90;;;;;;5031094;28;19944;-57
2022/10/03 11:35:22;;;;;;;;;;;26.30;99.90;;;;;;5031102;28;19920;-58
2022/10/03 11:37:48;;;;;;;;;;;26.30;99.90;;;;;;5031083;28;19909;-57
2022/10/03 11:40:22;;;;;;;;;;;26.30;99.90;;;;;;5031185;28;19959;-56
2022/10/03 11:42:49;;;;;;;;;;;26.30;99.90;;;;;;5031256;28;19909;-58
2022/10/03 11:45:33;;;;;;;;;;;26.30;99.90;;;;;;5032456;28;19925;-58
2022/10/03 11:48:08;;;;;;;;;;;26.30;99.90;;;;;;5034816;28;19971;-59
2022/10/03 11:50:37;;;;;;;;;;;26.40;99.90;;;;;;5034802;28;19905;-57
2022/10/03 11:53:22;;;;;;;;;;;26.40;99.90;;;;;;5034831;28;19905;-57
2022/10/03 11:55:50;;;;;;;;;;;26.40;99.90;;;;;;5034829;28;20060;-58
2022/10/03 11:58:15;;;;;;;;;;;26.50;99.90;;;;;;5034985;28;19927;-59
2022/10/03 12:00:43;;;;;;;;;;;26.50;99.90;;;;;;5034586;28;20396;-57
2022/10/03 12:03:12;;;;;;;;;;;26.50;99.90;;;;;;5034700;28;19905;-58
2022/10/03 12:05:44;;;;;;;;;;;26.60;99.90;;;;;;5034572;28;20261;-58
2022/10/03 12:11:12;;;;;;;;;;;26.60;99.90;;;;;;5034766;28;19927;-57
2022/10/03 12:13:57;;;;;;;;;;;26.60;99.90;;;;;;5034259;28;19905;-56
2022/10/03 12:16:28;;;;;;;;;;;26.60;99.90;;;;;;5034394;28;19905;-56
2022/10/03 12:19:14;;;;;;;;;;;26.70;99.90;;;;;;5034347;28;19928;-58
2022/10/03 12:21:53;;;;;;;;;;;26.70;99.90;;;;;;5033959;28;19909;-59
2022/10/03 12:24:18;;;;;;;;;;;26.70;99.90;;;;;;5034096;28;19905;-57
2022/10/03 12:26:44;;;;;;;;;;;26.70;99.90;;;;;;5049493;28;19913;-56
2022/10/03 12:29:12;;;;;;;;;;;26.80;99.90;;;;;;5034230;28;19943;-56
2022/10/03 12:31:41;;;;;;;;;;;26.80;99.90;;;;;;5034003;28;19905;-57
2022/10/03 12:34:25;;;;;;;;;;;26.80;99.90;;;;;;5034168;28;19905;-57
2022/10/03 12:37:11;;;;;;;;;;;26.80;99.90;;;;;;5033756;28;19909;-57
2022/10/03 12:39:42;;;;;;;;;;;26.80;99.90;;;;;;5022423;28;19909;-56
2022/10/03 12:42:26;;;;;;;;;;;26.80;99.90;;;;;;5033798;28;19920;-57
2022/10/03 12:45:10;;;;;;;;;;;26.90;99.90;;;;;;5033744;28;19909;-56
2022/10/03 12:47:36;;;;;;;;;;;26.90;99.90;;;;;;5048925;28;20110;-55
2022/10/03 12:50:21;;;;;;;;;;;26.90;99.90;;;;;;5033749;28;19912;-54
2022/10/03 12:52:56;;;;;;;;;;;26.90;99.90;;;;;;5033683;28;19905;-55
2022/10/03 12:55:21;;;;;;;;;;;26.80;99.90;;;;;;5033606;28;19951;-54
2022/10/03 12:58:00;;;;;;;;;;;26.80;99.90;;;;;;5033135;28;19990;-54
2022/10/03 13:00:38;;;;;;;;;;;26.80;99.90;;;;;;5033429;28;19962;-55
2022/10/03 13:03:24;;;;;;;;;;;26.80;99.90;;;;;;5033568;28;19912;-55
2022/10/03 13:05:55;;;;;;;;;;;26.80;99.90;;;;;;5033262;28;19913;-55
2022/10/03 13:08:20;;;;;;;;;;;26.70;99.90;;;;;;5033487;28;19912;-55
2022/10/03 13:11:01;;;;;;;;;;;26.70;99.90;;;;;;5028669;28;19914;-54
2022/10/03 13:13:32;;;;;;;;;;;26.70;99.90;;;;;;5020343;28;19996;-56
2022/10/03 13:16:07;;;;;;;;;;;26.70;99.90;;;;;;5033063;28;19992;-58
2022/10/03 13:18:44;;;;;;;;;;;26.80;99.90;;;;;;5032735;28;19919;-58
2022/10/03 13:21:18;;;;;;;;;;;26.80;99.90;;;;;;5030639;28;20289;-59
2022/10/03 13:23:46;;;;;;;;;;;26.80;99.90;;;;;;5032949;28;20418;-56
2022/10/03 13:26:12;;;;;;;;;;;26.80;99.90;;;;;;5032419;28;20011;-57
2022/10/03 13:28:58;;;;;;;;;;;26.80;99.90;;;;;;5033024;28;20291;-56
2022/10/03 13:31:26;;;;;;;;;;;26.90;99.90;;;;;;5028659;28;20192;-55
2022/10/03 13:33:54;;;;;;;;;;;26.90;99.90;;;;;;5032508;28;19958;-55
2022/10/03 13:36:29;;;;;;;;;;;26.90;99.90;;;;;;5032720;28;19905;-55
2022/10/03 13:39:13;;;;;;;;;;;26.90;99.90;;;;;;5032799;28;19905;-54
2022/10/03 13:41:48;;;;;;;;;;;27.00;99.90;;;;;;5032301;28;19935;-62
2022/10/03 13:44:16;;;;;;;;;;;27.00;99.90;;;;;;5023643;28;19909;-54
2022/10/03 13:46:43;;;;;;;;;;;27.00;99.90;;;;;;5013089;28;19920;-57
2022/10/03 13:49:34;;;;;;;;;;;27.10;99.90;;;;;;5012009;28;19952;-57
2022/10/03 13:52:26;;;;;;;;;;;27.00;99.90;;;;;;5012170;28;19996;-60
2022/10/03 13:54:57;;;;;;;;;;;27.10;99.90;;;;;;5003861;28;19916;-59
2022/10/03 13:57:26;;;;;;;;;;;27.00;99.90;;;;;;5014403;28;19996;-58
2022/10/03 13:59:57;;;;;;;;;;;27.00;99.90;;;;;;5025415;28;20368;-59
2022/10/03 14:02:36;;;;;;;;;;;26.90;99.90;;;;;;5018337;28;19960;-57
2022/10/03 14:05:22;;;;;;;;;;;26.90;99.90;;;;;;5019378;28;19905;-51
2022/10/03 14:07:54;;;;;;;;;;;26.90;99.90;;;;;;5031672;28;19948;-53
2022/10/03 14:10:19;;;;;;;;;;;26.80;99.90;;;;;;5031351;28;20280;-53
2022/10/03 14:13:04;;;;;;;;;;;26.80;99.90;;;;;;5030986;28;19912;-53
2022/10/03 14:15:34;;;;;;;;;;;26.70;99.90;;;;;;5030844;28;19905;-55
2022/10/03 14:18:09;;;;;;;;;;;26.70;99.90;;;;;;5031716;28;20287;-56
2022/10/03 14:20:53;;;;;;;;;;;26.70;99.90;;;;;;5031922;28;19996;-54
2022/10/03 14:23:22;;;;;;;;;;;26.70;99.90;;;;;;5032145;28;19955;-55
2022/10/03 14:25:59;;;;;;;;;;;26.70;99.90;;;;;;5031699;28;20020;-51
2022/10/03 14:28:27;;;;;;;;;;;26.70;99.90;;;;;;5031953;28;19911;-54
2022/10/03 14:30:55;;;;;;;;;;;26.70;99.90;;;;;;5020050;28;19909;-55
2022/10/03 14:33:32;;;;;;;;;;;26.70;99.90;;;;;;5043873;28;20589;-54
2022/10/03 14:36:16;;;;;;;;;;;26.80;99.90;;;;;;5024592;28;19913;-54
2022/10/03 14:38:57;;;;;;;;;;;26.80;99.90;;;;;;5026939;28;19959;-55
2022/10/03 14:41:32;;;;;;;;;;;26.80;99.90;;;;;;5029071;28;19916;-56
2022/10/03 14:44:14;;;;;;;;;;;26.80;99.90;;;;;;5018354;28;20348;-55
2022/10/03 14:46:49;;;;;;;;;;;26.80;99.90;;;;;;5017804;28;19927;-56
2022/10/03 14:49:32;;;;;;;;;;;26.80;99.90;;;;;;5018351;28;19909;-55
2022/10/03 14:52:03;;;;;;;;;;;26.70;99.90;;;;;;5028923;28;20035;-55
2022/10/03 14:54:29;;;;;;;;;;;26.70;99.90;;;;;;5029151;28;19905;-55
2022/10/03 14:56:56;;;;;;;;;;;26.60;99.90;;;;;;5029488;28;19920;-56
2022/10/03 14:59:33;;;;;;;;;;;26.60;99.90;;;;;;5028900;28;19973;-55
2022/10/03 15:02:00;;;;;;;;;;;26.50;99.90;;;;;;5029181;28;19982;-55
2022/10/03 15:04:31;;;;;;;;;;;26.50;99.90;;;;;;5029251;28;19976;-56
2022/10/03 15:06:59;;;;;;;;;;;26.50;99.90;;;;;;5017244;28;20969;-53
2022/10/03 15:09:37;;;;;;;;;;;26.50;99.90;;;;;;5018154;28;19916;-53
2022/10/03 15:12:19;;;;;;;;;;;26.50;99.90;;;;;;5018253;28;20330;-51
2022/10/03 15:14:47;;;;;;;;;;;26.60;99.90;;;;;;5023521;28;20286;-50
2022/10/03 15:17:17;;;;;;;;;;;26.60;99.90;;;;;;5014439;28;19906;-55